Terminal Aerodrome Forecast
Issued by NWS Wilmington, OH

Current Version | Previous Version | Text Only | Print | Product List | Glossary On
Versions: 1 2 3 4 5 6 7 8 9 10 11 12 13 14 15 16 17 18 19 20 21 22 23 24 25 26 27 28
000 FTUS41 KILN 151749 TAFILN TAF KILN 151749Z 1518/1618 18010G18KT P6SM SKC FM152000 19011G19KT P6SM FEW040 SCT250 FM160500 20012G20KT 5SM -SHRA SCT025 OVC035 FM160700 24012G23KT P6SM -SHRA OVC022 FM160800 28014G28KT P6SM -SHRA OVC015 FM161200 29015G25KT P6SM OVC015=

USA.gov is the U.S. government's official web portal to all federal, state and local government web resources and services.